createdAt,value
2022-11-26T00:02:22.906Z,99826.91
2022-11-26T00:04:50.630Z,99829.28
2022-11-26T00:07:18.986Z,99828.63
2022-11-26T00:09:46.123Z,99832.47
2022-11-26T00:12:20.543Z,99846.34
2022-11-26T00:14:47.676Z,99841.09
2022-11-26T00:17:15.340Z,99846.72
2022-11-26T00:19:42.821Z,99848.44
2022-11-26T00:22:24.610Z,99851.91
2022-11-26T00:24:52.487Z,99847.81
2022-11-26T00:27:19.707Z,99843.53
2022-11-26T00:29:46.805Z,99842.78
2022-11-26T00:32:15.187Z,99851.84
2022-11-26T00:34:42.384Z,99840.44
2022-11-26T00:37:12.079Z,99847.63
2022-11-26T00:39:39.481Z,99842.66
2022-11-26T00:42:06.588Z,99844.50
2022-11-26T00:44:33.685Z,99844.78
2022-11-26T00:47:01.039Z,99845.97
2022-11-26T00:49:28.936Z,99851.09
2022-11-26T00:51:56.056Z,99852.38
2022-11-26T00:54:23.435Z,99854.06
2022-11-26T00:56:50.749Z,99855.28
2022-11-26T00:59:19.183Z,99853.56
2022-11-26T01:01:46.609Z,99856.16
2022-11-26T01:04:13.812Z,99860.56
2022-11-26T01:06:41.607Z,99860.56
2022-11-26T01:09:12.940Z,99863.00
2022-11-26T01:11:40.036Z,99863.91
2022-11-26T01:14:09.711Z,99863.66
2022-11-26T01:16:39.272Z,99862.13
2022-11-26T01:19:06.440Z,99859.53
2022-11-26T01:21:33.535Z,99856.28
2022-11-26T01:24:00.927Z,99863.31
2022-11-26T01:26:28.606Z,99863.16
2022-11-26T01:28:55.738Z,99869.19
2022-11-26T01:31:24.133Z,99863.28
2022-11-26T01:33:51.285Z,99862.91
2022-11-26T01:36:38.027Z,99862.06
2022-11-26T01:39:06.701Z,99865.84
2022-11-26T01:41:43.705Z,99861.75
2022-11-26T01:44:16.192Z,99858.38
2022-11-26T01:46:43.334Z,99859.66
2022-11-26T01:49:15.133Z,99867.88
2022-11-26T01:51:42.246Z,99860.22
2022-11-26T01:54:09.394Z,99860.41
2022-11-26T01:56:41.457Z,99862.50
2022-11-26T01:59:08.556Z,99849.88
2022-11-26T02:01:36.044Z,99854.28
2022-11-26T02:04:11.477Z,99856.72
2022-11-26T02:06:38.579Z,99864.59
2022-11-26T02:09:06.614Z,99852.72
2022-11-26T02:11:33.716Z,99859.94
2022-11-26T02:14:32.174Z,99863.59
2022-11-26T02:17:19.370Z,99853.94
2022-11-26T02:20:06.034Z,99869.56
2022-11-26T02:22:33.337Z,99865.09
2022-11-26T02:25:19.931Z,99866.19
2022-11-26T02:27:52.299Z,99870.47
2022-11-26T02:30:19.467Z,99866.03
2022-11-26T02:32:54.453Z,99869.25
2022-11-26T02:35:31.920Z,99871.16
2022-11-26T02:38:04.735Z,99868.66
2022-11-26T02:40:32.101Z,99868.56
2022-11-26T02:42:59.597Z,99877.41
2022-11-26T02:45:28.184Z,99878.97
2022-11-26T02:47:56.212Z,99878.44
2022-11-26T02:50:27.738Z,99875.56
2022-11-26T02:52:55.101Z,99881.59
2022-11-26T02:55:23.411Z,99888.03
2022-11-26T02:57:51.944Z,99890.06
2022-11-26T03:00:19.269Z,99899.19
2022-11-26T03:02:46.570Z,99899.84
2022-11-26T03:05:13.738Z,99907.56
2022-11-26T03:07:40.991Z,99906.06
2022-11-26T03:10:08.674Z,99905.91
2022-11-26T03:12:35.786Z,99908.00
2022-11-26T03:15:03.197Z,99914.84
2022-11-26T03:17:30.832Z,99906.72
2022-11-26T03:19:57.936Z,99911.06
2022-11-26T03:22:25.057Z,99912.16
2022-11-26T03:24:52.427Z,99904.88
2022-11-26T03:27:19.538Z,99914.03
2022-11-26T03:29:46.666Z,99915.75
2022-11-26T03:32:14.109Z,99916.41
2022-11-26T03:34:41.368Z,99920.59
2022-11-26T03:37:10.008Z,99926.44
2022-11-26T03:39:37.439Z,99938.72
2022-11-26T03:42:04.536Z,99928.00
2022-11-26T03:44:32.156Z,99931.75
2022-11-26T03:46:59.525Z,99926.59
2022-11-26T03:49:26.696Z,99930.00
2022-11-26T03:51:53.784Z,99929.00
2022-11-26T03:54:21.127Z,99940.34
2022-11-26T03:56:48.304Z,99933.28
2022-11-26T03:59:15.413Z,99942.06
2022-11-26T04:01:42.843Z,99938.47
2022-11-26T04:04:10.282Z,99933.34
2022-11-26T04:06:37.424Z,99929.41
2022-11-26T04:09:04.533Z,99946.16
2022-11-26T04:11:31.905Z,99947.44
2022-11-26T04:13:59.054Z,99947.94
2022-11-26T04:16:26.225Z,99944.31
2022-11-26T04:18:53.592Z,99952.69
2022-11-26T04:21:20.687Z,99951.34
2022-11-26T04:23:48.209Z,99953.28
2022-11-26T04:26:15.578Z,99951.34
2022-11-26T04:28:43.976Z,99951.19
2022-11-26T04:31:11.064Z,99954.13
2022-11-26T04:33:38.423Z,99951.19
2022-11-26T04:36:05.531Z,99957.13
2022-11-26T04:38:32.641Z,99964.41
2022-11-26T04:41:00.000Z,99971.25
2022-11-26T04:43:27.110Z,99971.50
2022-11-26T04:45:54.231Z,99978.87
2022-11-26T04:48:21.616Z,99984.78
2022-11-26T04:50:49.195Z,99982.25
2022-11-26T04:53:16.727Z,99988.81
2022-11-26T04:55:44.073Z,100000.34
2022-11-26T04:58:11.363Z,99982.62
2022-11-26T05:00:40.114Z,99983.00
2022-11-26T05:03:07.657Z,99994.94
2022-11-26T05:05:34.916Z,99999.41
2022-11-26T05:08:02.139Z,100001.19
2022-11-26T05:10:29.504Z,100004.38
2022-11-26T05:12:56.591Z,100005.56
2022-11-26T05:15:23.709Z,100015.91
2022-11-26T05:17:51.085Z,100014.69
2022-11-26T05:20:18.177Z,100009.63
2022-11-26T05:22:45.277Z,100005.44
2022-11-26T05:25:12.670Z,100001.97
2022-11-26T05:27:39.795Z,100007.38
2022-11-26T05:30:07.495Z,100006.09
2022-11-26T05:32:34.854Z,100008.38
2022-11-26T05:35:01.960Z,100024.44
2022-11-26T05:37:29.077Z,100025.22
2022-11-26T05:39:56.488Z,100029.31
2022-11-26T05:42:23.578Z,100028.25
2022-11-26T05:44:50.679Z,100034.53
2022-11-26T05:47:18.019Z,100036.94
2022-11-26T05:49:45.129Z,100039.06
2022-11-26T05:52:12.221Z,100041.03
2022-11-26T05:54:39.999Z,100039.16
2022-11-26T05:57:07.247Z,100045.91
2022-11-26T05:59:34.603Z,100046.38
2022-11-26T06:02:02.120Z,100047.13
2022-11-26T06:04:29.569Z,100052.41
2022-11-26T06:06:57.693Z,100048.47
2022-11-26T06:09:24.796Z,100053.53
2022-11-26T06:11:52.181Z,100055.00
2022-11-26T06:14:19.313Z,100065.41
2022-11-26T06:16:46.492Z,100060.50
2022-11-26T06:19:13.973Z,100058.09
2022-11-26T06:21:41.079Z,100066.03
2022-11-26T06:24:08.178Z,100062.66
2022-11-26T06:26:35.545Z,100068.09
2022-11-26T06:29:03.124Z,100069.50
2022-11-26T06:31:30.320Z,100064.22
2022-11-26T06:33:57.721Z,100067.00
2022-11-26T06:36:24.823Z,100069.44
2022-11-26T06:38:51.917Z,100076.44
2022-11-26T06:41:19.299Z,100068.72
2022-11-26T06:43:46.407Z,100071.88
2022-11-26T06:46:13.551Z,100079.38
2022-11-26T06:48:40.955Z,100084.56
2022-11-26T06:51:09.556Z,100082.81
2022-11-26T06:53:36.690Z,100088.81
2022-11-26T06:56:04.828Z,100086.59
2022-11-26T06:58:32.034Z,100095.09
2022-11-26T07:00:59.215Z,100104.03
2022-11-26T07:03:31.877Z,100101.31
2022-11-26T07:06:00.303Z,100107.59
2022-11-26T07:08:27.668Z,100102.25
2022-11-26T07:10:54.776Z,100113.94
2022-11-26T07:13:21.885Z,100111.78
2022-11-26T07:15:49.304Z,100103.84
2022-11-26T07:18:16.463Z,100108.97
2022-11-26T07:20:43.546Z,100106.38
2022-11-26T07:23:10.969Z,100113.50
2022-11-26T07:25:38.082Z,100116.81
2022-11-26T07:28:05.195Z,100121.53
2022-11-26T07:30:32.570Z,100120.41
2022-11-26T07:32:59.689Z,100126.13
2022-11-26T07:35:27.115Z,100126.19
2022-11-26T07:37:54.225Z,100121.56
2022-11-26T07:40:21.402Z,100125.28
2022-11-26T07:42:53.168Z,100114.59
2022-11-26T07:45:24.466Z,100132.34
2022-11-26T07:47:51.828Z,100128.69
2022-11-26T07:50:18.930Z,100136.59
2022-11-26T07:52:46.049Z,100128.13
2022-11-26T07:55:13.439Z,100133.50
2022-11-26T07:57:40.540Z,100130.12
2022-11-26T08:00:07.956Z,100129.25
2022-11-26T08:02:39.053Z,100136.34
2022-11-26T08:05:06.692Z,100133.62
2022-11-26T08:07:34.869Z,100133.09
2022-11-26T08:10:02.408Z,100140.69
2022-11-26T08:12:29.770Z,100152.22
2022-11-26T08:14:57.002Z,100155.59
2022-11-26T08:17:24.109Z,100151.16
2022-11-26T08:19:51.459Z,100154.81
2022-11-26T08:22:18.554Z,100158.19
2022-11-26T08:24:45.700Z,100169.94
2022-11-26T08:27:13.077Z,100195.09
2022-11-26T08:29:40.195Z,100185.50
2022-11-26T08:32:07.633Z,100173.41
2022-11-26T08:34:35.412Z,100175.63
2022-11-26T08:37:02.516Z,100180.19
2022-11-26T08:39:29.637Z,100182.78
2022-11-26T08:41:57.033Z,100182.87
2022-11-26T08:44:24.227Z,100181.38
2022-11-26T08:46:51.317Z,100188.25
2022-11-26T08:49:18.752Z,100201.69
2022-11-26T08:51:45.927Z,100187.41
2022-11-26T08:54:13.019Z,100191.66
2022-11-26T08:56:40.430Z,100186.31
2022-11-26T08:59:07.551Z,100189.25
2022-11-26T09:01:34.738Z,100187.06
2022-11-26T09:04:02.557Z,100191.84
2022-11-26T09:06:30.513Z,100181.47
2022-11-26T09:09:13.084Z,100186.16
2022-11-26T09:11:50.853Z,100184.78
2022-11-26T09:14:19.271Z,100191.25
2022-11-26T09:16:46.777Z,100185.97
2022-11-26T09:19:13.971Z,100185.03
2022-11-26T09:21:41.077Z,100193.72
2022-11-26T09:24:08.640Z,100194.75
2022-11-26T09:26:35.994Z,100197.84
2022-11-26T09:29:03.623Z,100203.03
2022-11-26T09:31:31.127Z,100199.00
2022-11-26T09:33:58.974Z,100208.16
2022-11-26T09:36:26.189Z,100202.94
2022-11-26T09:38:57.098Z,100210.66
2022-11-26T09:41:28.883Z,100208.72
2022-11-26T09:44:15.317Z,100220.28
2022-11-26T09:47:11.698Z,100202.53
2022-11-26T09:49:42.963Z,100212.72
2022-11-26T09:52:10.059Z,100214.94
2022-11-26T09:54:37.379Z,100217.06
2022-11-26T09:57:19.801Z,100215.78
2022-11-26T09:59:46.960Z,100214.78
2022-11-26T10:02:14.493Z,100215.09
2022-11-26T10:04:41.925Z,100203.09
2022-11-26T10:07:09.076Z,100208.69
2022-11-26T10:09:36.499Z,100208.94
2022-11-26T10:12:25.904Z,100211.06
2022-11-26T10:15:07.793Z,100213.69
2022-11-26T10:17:38.710Z,100212.16
2022-11-26T10:20:24.244Z,100207.66
2022-11-26T10:23:17.679Z,100213.13
2022-11-26T10:25:46.437Z,100221.97
2022-11-26T10:28:16.839Z,100219.25
2022-11-26T10:30:43.955Z,100228.03
2022-11-26T10:33:12.097Z,100226.53
2022-11-26T10:35:39.600Z,100223.97
2022-11-26T10:38:08.493Z,100221.16
2022-11-26T10:40:35.679Z,100221.59
2022-11-26T10:43:08.122Z,100222.50
2022-11-26T10:45:47.945Z,100224.56
2022-11-26T10:48:21.747Z,100226.31
2022-11-26T10:50:55.335Z,100223.59
2022-11-26T10:53:23.281Z,100229.28
2022-11-26T10:55:50.956Z,100226.28
2022-11-26T10:58:22.348Z,100218.78
2022-11-26T11:00:49.757Z,100220.56
2022-11-26T11:03:44.551Z,100226.47
2022-11-26T11:06:18.718Z,100213.31
2022-11-26T11:08:49.901Z,100222.53
2022-11-26T11:11:23.369Z,100215.72
2022-11-26T11:13:50.567Z,100218.72
2022-11-26T11:16:25.661Z,100218.94
2022-11-26T11:18:54.680Z,100209.72
2022-11-26T11:21:22.473Z,100211.94
2022-11-26T11:24:08.157Z,100202.81
2022-11-26T11:26:40.551Z,100205.56
2022-11-26T11:29:11.604Z,100199.84
2022-11-26T11:31:45.590Z,100206.16
2022-11-26T11:34:18.010Z,100201.78
2022-11-26T11:36:45.413Z,100206.19
2022-11-26T11:39:26.958Z,100206.75
2022-11-26T11:41:54.336Z,100209.84
2022-11-26T11:44:25.634Z,100210.53
2022-11-26T11:47:11.611Z,100215.59
2022-11-26T11:49:43.069Z,100220.84
2022-11-26T11:52:13.439Z,100216.94
2022-11-26T11:55:00.154Z,100205.47
2022-11-26T11:57:38.097Z,100213.19
2022-11-26T12:00:26.763Z,100204.34
2022-11-26T12:02:54.075Z,100213.53
2022-11-26T12:05:36.343Z,100219.19
2022-11-26T12:08:12.378Z,100216.53
2022-11-26T12:10:48.732Z,100221.78
2022-11-26T12:13:16.096Z,100212.59
2022-11-26T12:15:51.803Z,100218.16
2022-11-26T12:18:22.565Z,100216.78
2022-11-26T12:20:50.903Z,100221.94
2022-11-26T12:23:36.673Z,100218.25
2022-11-26T12:26:06.296Z,100224.47
2022-11-26T12:28:34.215Z,100222.56
2022-11-26T12:31:05.870Z,100220.47
2022-11-26T12:33:41.399Z,100222.41
2022-11-26T12:36:24.902Z,100226.00
2022-11-26T12:39:06.635Z,100224.53
2022-11-26T12:41:33.759Z,100216.22
2022-11-26T12:44:04.125Z,100216.31
2022-11-26T12:46:34.756Z,100220.84
2022-11-26T12:49:14.232Z,100215.47
2022-11-26T12:51:55.185Z,100221.56
2022-11-26T12:54:24.667Z,100229.25
2022-11-26T12:56:57.287Z,100214.69
2022-11-26T12:59:30.585Z,100228.09
2022-11-26T13:01:57.972Z,100207.13
2022-11-26T13:04:37.538Z,100212.91
2022-11-26T13:07:25.952Z,100205.78
2022-11-26T13:09:59.251Z,100215.47
2022-11-26T13:12:29.596Z,100219.75
2022-11-26T13:15:00.032Z,100219.25
2022-11-26T13:17:29.434Z,100224.66
2022-11-26T13:20:00.352Z,100221.94
2022-11-26T13:22:40.696Z,100220.88
2022-11-26T13:25:09.391Z,100219.03
2022-11-26T13:27:56.838Z,100216.66
2022-11-26T13:30:24.944Z,100215.38
2022-11-26T13:32:58.002Z,100220.31
2022-11-26T13:35:37.360Z,100219.38
2022-11-26T13:38:17.666Z,100222.81
2022-11-26T13:41:17.589Z,100215.59
2022-11-26T13:43:53.571Z,100215.41
2022-11-26T13:46:22.829Z,100216.22
2022-11-26T13:48:59.334Z,100219.94
2022-11-26T13:51:46.998Z,100228.97
2022-11-26T13:54:21.541Z,100235.12
2022-11-26T13:56:48.923Z,100232.06
2022-11-26T13:59:23.959Z,100231.56
2022-11-26T14:01:54.442Z,100245.00
2022-11-26T14:04:24.860Z,100244.50
2022-11-26T14:07:03.923Z,100242.12
2022-11-26T14:09:46.348Z,100241.81
2022-11-26T14:12:14.026Z,100238.38
2022-11-26T14:14:42.121Z,100233.09
2022-11-26T14:17:13.861Z,100229.06
2022-11-26T14:19:40.901Z,100227.25
2022-11-26T14:22:08.233Z,100232.84
2022-11-26T14:24:53.285Z,100238.69
2022-11-26T14:27:24.087Z,100228.22
2022-11-26T14:29:55.507Z,100230.63
2022-11-26T14:32:23.565Z,100232.16
2022-11-26T14:34:51.380Z,100223.69
2022-11-26T14:37:19.979Z,100227.34
2022-11-26T14:39:58.675Z,100226.41
2022-11-26T14:42:26.081Z,100229.94
2022-11-26T14:45:12.595Z,100230.09
2022-11-26T14:47:39.736Z,100232.53
2022-11-26T14:50:07.398Z,100235.97
2022-11-26T14:52:35.138Z,100240.94
2022-11-26T14:55:03.379Z,100237.72
2022-11-26T14:57:49.517Z,100245.31
2022-11-26T15:00:16.770Z,100254.03
2022-11-26T15:02:48.278Z,100255.41
2022-11-26T15:05:16.905Z,100267.75
2022-11-26T15:07:44.597Z,100271.81
2022-11-26T15:10:14.753Z,100270.94
2022-11-26T15:12:44.689Z,100267.53
2022-11-26T15:15:19.197Z,100274.00
2022-11-26T15:17:50.897Z,100275.06
2022-11-26T15:20:18.314Z,100262.88
2022-11-26T15:22:49.404Z,100263.31
2022-11-26T15:25:16.474Z,100268.75
2022-11-26T15:27:54.250Z,100263.81
2022-11-26T15:30:25.977Z,100268.06
2022-11-26T15:33:08.655Z,100262.84
2022-11-26T15:35:36.436Z,100270.03
2022-11-26T15:38:14.835Z,100268.25
2022-11-26T15:40:46.309Z,100266.16
2022-11-26T15:43:19.935Z,100273.91
2022-11-26T15:45:47.061Z,100266.12
2022-11-26T15:48:28.075Z,100264.88
2022-11-26T15:51:09.935Z,100265.06
2022-11-26T15:53:37.635Z,100254.53
2022-11-26T15:56:04.850Z,100264.63
2022-11-26T15:58:33.286Z,100257.16
2022-11-26T16:01:01.429Z,100265.62
2022-11-26T16:03:33.162Z,100259.47
2022-11-26T16:06:00.523Z,100258.31
2022-11-26T16:08:30.271Z,100256.75
2022-11-26T16:11:03.920Z,100253.31
2022-11-26T16:13:31.751Z,100257.19
2022-11-26T16:16:02.512Z,100259.03
2022-11-26T16:18:37.095Z,100258.16
2022-11-26T16:21:08.733Z,100258.56
2022-11-26T16:23:35.980Z,100260.47
2022-11-26T16:26:07.246Z,100255.53
2022-11-26T16:28:34.647Z,100256.97
2022-11-26T16:31:02.089Z,100251.47
2022-11-26T16:33:29.770Z,100247.66
2022-11-26T16:35:57.189Z,100254.13
2022-11-26T16:38:25.270Z,100248.06
2022-11-26T16:40:52.892Z,100245.25
2022-11-26T16:43:20.885Z,100249.63
2022-11-26T16:45:48.462Z,100245.09
2022-11-26T16:48:25.501Z,100244.28
2022-11-26T16:50:57.920Z,100248.62
2022-11-26T16:53:25.190Z,100249.63
2022-11-26T16:55:52.640Z,100244.13
2022-11-26T16:58:29.730Z,100246.16
2022-11-26T17:00:57.263Z,100230.69
2022-11-26T17:03:24.892Z,100243.25
2022-11-26T17:05:54.343Z,100252.34
2022-11-26T17:08:25.016Z,100253.75
2022-11-26T17:10:52.408Z,100245.47
2022-11-26T17:13:20.604Z,100251.94
2022-11-26T17:15:48.100Z,100259.84
2022-11-26T17:18:20.254Z,100259.09
2022-11-26T17:20:47.720Z,100263.09
2022-11-26T17:23:15.126Z,100269.06
2022-11-26T17:25:45.897Z,100275.75
2022-11-26T17:28:14.255Z,100273.69
2022-11-26T17:30:42.289Z,100271.81
2022-11-26T17:33:10.162Z,100269.94
2022-11-26T17:35:38.200Z,100277.44
2022-11-26T17:38:10.947Z,100266.91
2022-11-26T17:40:38.407Z,100268.34
2022-11-26T17:43:05.518Z,100265.62
2022-11-26T17:45:32.645Z,100274.63
2022-11-26T17:48:00.517Z,100271.25
2022-11-26T17:50:28.905Z,100273.38
2022-11-26T17:52:56.458Z,100267.87
2022-11-26T17:55:24.434Z,100264.50
2022-11-26T17:57:52.080Z,100272.66
2022-11-26T18:00:20.666Z,100277.06
2022-11-26T18:02:48.279Z,100266.03
2022-11-26T18:05:16.484Z,100271.44
2022-11-26T18:07:43.967Z,100263.50
2022-11-26T18:10:15.686Z,100257.78
2022-11-26T18:12:43.105Z,100257.91
2022-11-26T18:15:16.344Z,100256.59
2022-11-26T18:17:51.312Z,100251.78
2022-11-26T18:20:19.742Z,100255.41
2022-11-26T18:22:49.761Z,100262.38
2022-11-26T18:25:17.250Z,100264.06
2022-11-26T18:27:44.837Z,100271.34
2022-11-26T18:30:12.499Z,100264.37
2022-11-26T18:32:39.732Z,100270.13
2022-11-26T18:35:07.602Z,100270.31
2022-11-26T18:37:35.526Z,100278.22
2022-11-26T18:40:03.556Z,100265.38
2022-11-26T18:42:38.657Z,100271.72
2022-11-26T18:45:07.227Z,100272.34
2022-11-26T18:47:35.665Z,100257.00
2022-11-26T18:50:03.265Z,100258.94
2022-11-26T18:52:31.286Z,100262.97
2022-11-26T18:54:58.638Z,100264.50
2022-11-26T18:57:26.267Z,100258.03
2022-11-26T18:59:53.898Z,100260.91
2022-11-26T19:02:21.755Z,100262.78
2022-11-26T19:04:49.504Z,100268.75
2022-11-26T19:07:17.380Z,100280.59
2022-11-26T19:09:45.071Z,100271.63
2022-11-26T19:12:12.911Z,100278.25
2022-11-26T19:14:40.556Z,100281.09
2022-11-26T19:17:09.437Z,100280.16
2022-11-26T19:19:38.277Z,100276.50
2022-11-26T19:22:06.608Z,100276.84
2022-11-26T19:24:34.327Z,100267.59
2022-11-26T19:27:03.051Z,100274.44
2022-11-26T19:29:31.168Z,100280.03
2022-11-26T19:31:59.096Z,100278.47
2022-11-26T19:34:26.682Z,100282.94
2022-11-26T19:36:56.885Z,100282.41
2022-11-26T19:39:24.563Z,100282.84
2022-11-26T19:41:52.309Z,100290.78
2022-11-26T19:44:21.820Z,100287.63
2022-11-26T19:46:49.587Z,100285.44
2022-11-26T19:49:17.312Z,100297.25
2022-11-26T19:51:44.763Z,100293.38
2022-11-26T19:54:12.303Z,100291.00
2022-11-26T19:56:39.874Z,100297.50
2022-11-26T19:59:07.637Z,100296.69
2022-11-26T20:01:36.261Z,100308.16
2022-11-26T20:04:05.515Z,100299.41
2022-11-26T20:06:33.823Z,100302.28
2022-11-26T20:09:01.369Z,100298.97
2022-11-26T20:11:29.363Z,100300.12
2022-11-26T20:13:57.449Z,100300.66
2022-11-26T20:16:26.768Z,100305.94
2022-11-26T20:18:54.914Z,100302.28
2022-11-26T20:21:26.979Z,100302.78
2022-11-26T20:23:55.353Z,100303.97
2022-11-26T20:26:25.681Z,100303.97
2022-11-26T20:28:53.494Z,100293.59
2022-11-26T20:31:23.887Z,100295.88
2022-11-26T20:33:53.367Z,100295.50
2022-11-26T20:36:23.001Z,100291.50
2022-11-26T20:38:54.670Z,100295.44
2022-11-26T20:41:23.296Z,100300.00
2022-11-26T20:43:56.513Z,100292.22
2022-11-26T20:46:25.817Z,100292.50
2022-11-26T20:48:53.480Z,100298.03
2022-11-26T20:51:22.376Z,100294.63
2022-11-26T20:53:51.147Z,100299.69
2022-11-26T20:56:19.449Z,100301.53
2022-11-26T20:58:47.367Z,100299.03
2022-11-26T21:01:16.201Z,100298.03
2022-11-26T21:03:43.506Z,100298.25
2022-11-26T21:06:12.351Z,100297.16
2022-11-26T21:08:40.582Z,100286.03
2022-11-26T21:11:08.406Z,100293.16
2022-11-26T21:13:36.563Z,100296.97
2022-11-26T21:16:04.775Z,100296.22
2022-11-26T21:18:32.568Z,100285.06
2022-11-26T21:21:00.054Z,100294.63
2022-11-26T21:23:28.355Z,100289.62
2022-11-26T21:25:55.718Z,100302.16
2022-11-26T21:28:23.185Z,100299.75
2022-11-26T21:30:51.166Z,100296.81
2022-11-26T21:33:18.389Z,100296.91
2022-11-26T21:35:45.641Z,100306.00
2022-11-26T21:38:13.732Z,100303.06
2022-11-26T21:40:41.048Z,100309.91
2022-11-26T21:43:08.423Z,100311.72
2022-11-26T21:45:35.861Z,100314.72
2022-11-26T21:48:02.990Z,100312.44
2022-11-26T21:50:30.245Z,100321.38
2022-11-26T21:52:57.681Z,100316.44
2022-11-26T21:55:24.880Z,100321.78
2022-11-26T21:57:52.056Z,100326.28
2022-11-26T22:00:19.553Z,100325.81
2022-11-26T22:02:47.011Z,100332.56
2022-11-26T22:05:14.239Z,100329.34
2022-11-26T22:07:41.637Z,100332.63
2022-11-26T22:10:09.453Z,100331.28
2022-11-26T22:12:36.558Z,100326.00
2022-11-26T22:15:03.733Z,100328.44
2022-11-26T22:17:31.124Z,100324.81
2022-11-26T22:19:58.261Z,100322.56
2022-11-26T22:22:25.362Z,100321.84
2022-11-26T22:24:52.841Z,100323.56
2022-11-26T22:27:19.953Z,100320.09
2022-11-26T22:29:47.635Z,100311.91
2022-11-26T22:32:15.008Z,100322.53
2022-11-26T22:34:42.195Z,100308.53
2022-11-26T22:37:09.306Z,100309.41
2022-11-26T22:39:36.852Z,100302.28
2022-11-26T22:42:04.173Z,100310.50
2022-11-26T22:44:31.307Z,100310.44
2022-11-26T22:46:58.688Z,100315.56
2022-11-26T22:49:25.821Z,100308.19
2022-11-26T22:51:52.925Z,100311.03
2022-11-26T22:54:21.324Z,100307.94
2022-11-26T22:56:48.483Z,100307.84
2022-11-26T22:59:15.591Z,100309.41
2022-11-26T23:01:42.971Z,100308.44
2022-11-26T23:04:10.441Z,100308.00
2022-11-26T23:06:38.055Z,100306.50
2022-11-26T23:09:05.792Z,100306.03
2022-11-26T23:11:33.876Z,100304.19
2022-11-26T23:14:02.178Z,100301.78
2022-11-26T23:16:29.689Z,100298.91
2022-11-26T23:18:57.048Z,100296.56
2022-11-26T23:21:25.575Z,100295.53
2022-11-26T23:23:53.110Z,100300.31
2022-11-26T23:26:26.374Z,100292.41
2022-11-26T23:28:58.133Z,100295.63
2022-11-26T23:31:26.965Z,100288.25
2022-11-26T23:33:54.397Z,100297.50
2022-11-26T23:36:21.543Z,100296.53
2022-11-26T23:38:48.676Z,100302.53
2022-11-26T23:41:16.148Z,100305.81
2022-11-26T23:43:43.351Z,100299.28
2022-11-26T23:46:13.600Z,100300.22
2022-11-26T23:48:41.329Z,100307.87
2022-11-26T23:51:09.613Z,100294.63
2022-11-26T23:53:37.156Z,100296.19
2022-11-26T23:56:05.495Z,100289.59
2022-11-26T23:58:32.678Z,100293.69
